Beighton, United Kingdom
Current Conditions -  °F | °C
As of 1:50 AM on Saturday 25 Oct 2014 (Local Time) from EGCN Reporting Station
Clear Clear  
Wind Chill:   Ceiling: Unl
Heat Index:   Visibility: 6mi
Dew Point:   Wind: 7mph
Humidity: 93%   Direction: 190°S
Pressure: 29.94"   Gusts: NA
Location:  53.33°N, 1.33°W
Report Text: EGCN 250050Z 19006KT CAVOK 07/06 Q1014
Loading
Personal Weather Stations






























Interactive Weather Map
Tropical Storm Tracking
New forecast layout! Learn more

10-Day Weather Forecast

Advertisements
Track Severe Weather on mobile